createdAt,value
2019-04-29T00:01:11.995Z,86.03
2019-04-29T00:03:42.561Z,86.26
2019-04-29T00:06:13.116Z,86.45
2019-04-29T00:08:43.891Z,86.59
2019-04-29T00:11:14.545Z,85.88
2019-04-29T00:13:45.552Z,86.17
2019-04-29T00:16:30.080Z,86.60
2019-04-29T00:19:02.332Z,87.03
2019-04-29T00:21:32.945Z,87.73
2019-04-29T00:24:04.377Z,87.83
2019-04-29T00:26:35.374Z,87.92
2019-04-29T00:29:05.995Z,88.19
2019-04-29T00:31:36.592Z,88.40
2019-04-29T00:34:07.253Z,88.18
2019-04-29T00:36:45.308Z,87.97
2019-04-29T00:39:23.361Z,88.05
2019-04-29T00:42:07.964Z,87.90
2019-04-29T00:44:38.582Z,88.11
2019-04-29T00:47:09.200Z,87.92
2019-04-29T00:49:39.808Z,87.27
2019-04-29T00:52:10.565Z,87.73
2019-04-29T00:54:47.185Z,87.98
2019-04-29T00:57:18.156Z,88.23
2019-04-29T00:59:50.702Z,87.98
2019-04-29T01:02:21.308Z,87.74
2019-04-29T01:04:51.917Z,87.65
2019-04-29T01:07:22.673Z,87.96
2019-04-29T01:09:53.279Z,88.09
2019-04-29T01:12:23.935Z,88.28
2019-04-29T01:14:54.578Z,88.04
2019-04-29T01:17:25.845Z,88.19
2019-04-29T01:19:56.397Z,88.35
2019-04-29T01:22:27.514Z,88.63
2019-04-29T01:24:58.072Z,88.27
2019-04-29T01:27:30.309Z,88.40
2019-04-29T01:30:02.354Z,88.41
2019-04-29T01:32:33.064Z,88.43
2019-04-29T01:35:05.435Z,87.88
2019-04-29T01:37:37.651Z,86.86
2019-04-29T01:40:10.387Z,87.36
2019-04-29T01:42:42.642Z,87.32
2019-04-29T01:45:14.399Z,86.69
2019-04-29T01:47:45.372Z,86.89
2019-04-29T01:50:15.927Z,87.01
2019-04-29T01:52:46.532Z,86.83
2019-04-29T01:55:18.202Z,86.40
2019-04-29T01:57:48.844Z,86.73
2019-04-29T02:00:19.747Z,87.35
2019-04-29T02:02:50.348Z,87.27
2019-04-29T02:05:20.956Z,87.41
2019-04-29T02:07:51.553Z,87.48
2019-04-29T02:10:23.898Z,87.28
2019-04-29T02:12:54.657Z,87.20
2019-04-29T02:15:26.008Z,86.61
2019-04-29T02:17:56.570Z,86.36
2019-04-29T02:20:27.215Z,84.58
2019-04-29T02:23:02.458Z,85.66
2019-04-29T02:25:50.164Z,86.33
2019-04-29T02:28:20.804Z,86.94
2019-04-29T02:30:52.147Z,86.57
2019-04-29T02:33:22.763Z,86.14
2019-04-29T02:35:54.337Z,85.53
2019-04-29T02:38:41.714Z,85.47
2019-04-29T02:41:17.104Z,86.03
2019-04-29T02:43:49.944Z,84.63
2019-04-29T02:46:20.488Z,85.26
2019-04-29T02:48:51.244Z,85.88
2019-04-29T02:51:39.806Z,85.67
2019-04-29T02:54:10.409Z,85.29
2019-04-29T02:56:42.630Z,84.82
2019-04-29T02:59:15.097Z,85.46
2019-04-29T03:02:02.778Z,86.48
2019-04-29T03:04:37.991Z,86.27
2019-04-29T03:07:08.605Z,85.93
2019-04-29T03:09:45.576Z,86.64
2019-04-29T03:12:16.237Z,86.18
2019-04-29T03:14:46.840Z,86.22
2019-04-29T03:17:18.951Z,86.40
2019-04-29T03:20:09.747Z,86.62
2019-04-29T03:22:42.348Z,86.13
2019-04-29T03:25:13.330Z,86.94
2019-04-29T03:27:44.962Z,86.04
2019-04-29T03:30:15.713Z,85.90
2019-04-29T03:32:46.369Z,85.52
2019-04-29T03:35:16.879Z,84.98
2019-04-29T03:37:47.484Z,86.38
2019-04-29T03:40:18.050Z,86.06
2019-04-29T03:42:48.672Z,85.80
2019-04-29T03:45:19.280Z,85.62
2019-04-29T03:47:49.881Z,85.59
2019-04-29T03:50:20.613Z,85.31
2019-04-29T03:52:51.167Z,84.07
2019-04-29T03:55:38.168Z,85.18
2019-04-29T03:57:54.046Z,85.59
2019-04-29T04:00:24.665Z,85.36
2019-04-29T04:03:06.144Z,85.20
2019-04-29T04:05:39.307Z,85.38
2019-04-29T04:08:20.889Z,85.41
2019-04-29T04:10:51.559Z,84.43
2019-04-29T04:13:22.129Z,84.89
2019-04-29T04:15:52.708Z,83.99
2019-04-29T04:18:27.777Z,84.55
2019-04-29T04:20:58.502Z,84.06
2019-04-29T04:23:29.112Z,84.46
2019-04-29T04:25:59.825Z,85.49
2019-04-29T04:28:30.453Z,85.81
2019-04-29T04:31:01.165Z,85.18
2019-04-29T04:33:31.978Z,85.67
2019-04-29T04:36:02.613Z,86.53
2019-04-29T04:38:33.212Z,85.46
2019-04-29T04:41:05.743Z,85.08
2019-04-29T04:43:36.513Z,85.52
2019-04-29T04:46:07.145Z,85.62
2019-04-29T04:48:38.348Z,84.82
2019-04-29T04:51:09.597Z,85.26
2019-04-29T04:53:40.374Z,85.51
2019-04-29T04:56:11.081Z,85.19
2019-04-29T04:58:42.046Z,84.82
2019-04-29T05:01:13.326Z,84.78
2019-04-29T05:03:44.464Z,84.36
2019-04-29T05:06:15.134Z,83.94
2019-04-29T05:08:46.758Z,83.28
2019-04-29T05:11:17.390Z,82.12
2019-04-29T05:13:48.242Z,83.88
2019-04-29T05:16:18.913Z,84.30
2019-04-29T05:18:49.589Z,84.64
2019-04-29T05:21:20.135Z,84.62
2019-04-29T05:23:51.872Z,84.06
2019-04-29T05:26:22.475Z,83.12
2019-04-29T05:28:53.589Z,83.14
2019-04-29T05:31:24.148Z,83.28
2019-04-29T05:33:54.926Z,83.55
2019-04-29T05:36:27.134Z,83.27
2019-04-29T05:39:14.374Z,82.96
2019-04-29T05:41:45.040Z,83.31
2019-04-29T05:44:29.205Z,82.27
2019-04-29T05:47:07.675Z,82.20
2019-04-29T05:49:42.897Z,80.73
2019-04-29T05:52:15.079Z,81.15
2019-04-29T05:54:46.013Z,82.24
2019-04-29T05:57:20.354Z,81.92
2019-04-29T05:59:49.526Z,81.94
2019-04-29T06:02:24.073Z,81.07
2019-04-29T06:04:53.948Z,80.76
2019-04-29T06:07:26.962Z,80.13
2019-04-29T06:09:57.657Z,80.98
2019-04-29T06:12:29.229Z,80.22
2019-04-29T06:14:59.847Z,80.36
2019-04-29T06:17:30.635Z,79.62
2019-04-29T06:20:01.240Z,81.11
2019-04-29T06:22:31.919Z,79.80
2019-04-29T06:25:02.584Z,80.38
2019-04-29T06:27:33.418Z,80.90
2019-04-29T06:30:08.832Z,80.92
2019-04-29T06:32:39.478Z,81.59
2019-04-29T06:35:13.834Z,81.69
2019-04-29T06:37:42.783Z,81.54
2019-04-29T06:40:13.536Z,80.48
2019-04-29T06:42:44.198Z,81.03
2019-04-29T06:45:15.287Z,81.08
2019-04-29T06:47:45.920Z,81.36
2019-04-29T06:50:16.828Z,81.04
2019-04-29T06:52:47.385Z,80.94
2019-04-29T06:55:18.003Z,80.86
2019-04-29T06:57:48.634Z,79.94
2019-04-29T07:00:22.229Z,79.66
2019-04-29T07:02:51.852Z,80.12
2019-04-29T07:05:23.631Z,80.11
2019-04-29T07:07:54.250Z,78.91
2019-04-29T07:10:27.034Z,78.47
2019-04-29T07:12:57.147Z,78.06
2019-04-29T07:15:28.730Z,77.90
2019-04-29T07:17:59.389Z,77.38
2019-04-29T07:20:32.544Z,77.80
2019-04-29T07:23:02.573Z,76.82
2019-04-29T07:25:34.223Z,78.01
2019-04-29T07:28:04.904Z,76.84
2019-04-29T07:30:39.207Z,76.47
2019-04-29T07:33:07.909Z,78.11
2019-04-29T07:35:42.859Z,77.73
2019-04-29T07:38:12.302Z,77.00
2019-04-29T07:40:43.706Z,76.31
2019-04-29T07:43:15.181Z,76.18
2019-04-29T07:45:53.403Z,76.55
2019-04-29T07:48:24.905Z,76.80
2019-04-29T07:50:59.462Z,76.34
2019-04-29T07:53:36.745Z,76.14
2019-04-29T07:56:01.714Z,75.51
2019-04-29T07:58:32.386Z,76.27
2019-04-29T08:01:02.993Z,76.23
2019-04-29T08:03:33.558Z,76.14
2019-04-29T08:06:04.294Z,75.29
2019-04-29T08:08:35.280Z,75.94
2019-04-29T08:11:05.849Z,77.13
2019-04-29T08:13:37.856Z,76.33
2019-04-29T08:16:08.451Z,75.83
2019-04-29T08:18:39.329Z,75.22
2019-04-29T08:21:10.177Z,75.04
2019-04-29T08:23:42.443Z,74.84
2019-04-29T08:26:13.117Z,75.37
2019-04-29T08:28:44.352Z,75.17
2019-04-29T08:31:16.577Z,74.37
2019-04-29T08:33:48.535Z,74.68
2019-04-29T08:36:20.658Z,74.27
2019-04-29T08:38:51.237Z,74.28
2019-04-29T08:41:28.498Z,73.51
2019-04-29T08:44:16.274Z,74.30
2019-04-29T08:46:58.478Z,75.09
2019-04-29T08:49:29.062Z,73.56
2019-04-29T08:52:01.639Z,74.12
2019-04-29T08:54:37.005Z,73.56
2019-04-29T08:57:06.109Z,73.34
2019-04-29T08:59:36.683Z,72.40
2019-04-29T09:02:10.182Z,71.67
2019-04-29T09:04:52.806Z,70.54
2019-04-29T09:07:13.209Z,70.20
2019-04-29T09:09:44.230Z,69.14
2019-04-29T09:12:14.814Z,69.03
2019-04-29T09:14:45.391Z,69.81
2019-04-29T09:17:20.622Z,69.88
2019-04-29T09:19:48.238Z,67.56
2019-04-29T09:22:20.428Z,67.52
2019-04-29T09:25:09.347Z,66.71
2019-04-29T09:27:45.027Z,65.41
2019-04-29T09:30:16.247Z,63.48
2019-04-29T09:32:46.826Z,64.61
2019-04-29T09:35:17.623Z,63.11
2019-04-29T09:37:48.282Z,60.95
2019-04-29T09:40:23.802Z,58.52
2019-04-29T09:42:57.096Z,59.85
2019-04-29T09:45:45.703Z,59.00
2019-04-29T09:48:16.293Z,59.85
2019-04-29T09:50:46.887Z,59.85
2019-04-29T09:53:17.493Z,56.99
2019-04-29T09:55:48.074Z,56.99
2019-04-29T09:58:18.705Z,56.02
2019-04-29T10:00:50.947Z,57.01
2019-04-29T10:03:26.064Z,54.99
2019-04-29T10:05:59.236Z,54.71
2019-04-29T10:08:30.092Z,56.84
2019-04-29T10:11:00.678Z,54.22
2019-04-29T10:13:33.297Z,55.30
2019-04-29T10:16:20.789Z,55.21
2019-04-29T10:18:53.043Z,55.48
2019-04-29T10:21:24.471Z,54.42
2019-04-29T10:23:55.156Z,54.42
2019-04-29T10:26:25.782Z,55.91
2019-04-29T10:28:58.006Z,53.69
2019-04-29T10:31:28.978Z,54.67
2019-04-29T10:33:59.546Z,54.72
2019-04-29T10:36:33.122Z,52.94
2019-04-29T10:39:06.855Z,54.30
2019-04-29T10:41:40.316Z,54.42
2019-04-29T10:44:15.904Z,54.12
2019-04-29T10:46:50.832Z,53.53
2019-04-29T10:49:23.049Z,54.38
2019-04-29T10:51:53.727Z,54.41
2019-04-29T10:54:28.035Z,54.54
2019-04-29T10:56:59.109Z,54.23
2019-04-29T10:59:36.039Z,52.96
2019-04-29T11:02:23.144Z,53.34
2019-04-29T11:04:56.351Z,52.76
2019-04-29T11:07:33.081Z,52.26
2019-04-29T11:10:09.284Z,51.34
2019-04-29T11:12:42.198Z,50.61
2019-04-29T11:15:13.948Z,51.02
2019-04-29T11:17:46.442Z,51.56
2019-04-29T11:20:21.074Z,52.48
2019-04-29T11:23:00.551Z,51.07
2019-04-29T11:25:40.468Z,49.70
2019-04-29T11:28:12.212Z,50.83
2019-04-29T11:30:43.377Z,50.95
2019-04-29T11:33:18.639Z,50.62
2019-04-29T11:35:50.884Z,49.92
2019-04-29T11:38:21.540Z,51.21
2019-04-29T11:40:52.470Z,51.46
2019-04-29T11:43:23.955Z,51.09
2019-04-29T11:45:55.411Z,49.90
2019-04-29T11:48:25.984Z,50.21
2019-04-29T11:50:58.203Z,50.73
2019-04-29T11:53:28.822Z,49.11
2019-04-29T11:55:59.415Z,49.19
2019-04-29T11:58:40.546Z,50.24
2019-04-29T12:01:38.495Z,48.51
2019-04-29T12:04:15.522Z,48.39
2019-04-29T12:06:46.194Z,48.76
2019-04-29T12:09:16.887Z,46.88
2019-04-29T12:11:47.706Z,47.20
2019-04-29T12:14:28.799Z,47.41
2019-04-29T12:17:17.716Z,46.75
2019-04-29T12:20:06.415Z,46.52
2019-04-29T12:22:47.640Z,45.88
2019-04-29T12:25:09.776Z,47.62
2019-04-29T12:27:40.386Z,48.50
2019-04-29T12:30:12.986Z,49.31
2019-04-29T12:33:01.330Z,49.13
2019-04-29T12:35:51.228Z,49.40
2019-04-29T12:38:38.816Z,49.80
2019-04-29T12:41:00.084Z,49.10
2019-04-29T12:43:41.663Z,49.73
2019-04-29T12:46:13.891Z,49.68
2019-04-29T12:48:44.467Z,48.98
2019-04-29T12:51:17.048Z,49.47
2019-04-29T12:53:47.296Z,48.17
2019-04-29T12:56:19.536Z,47.75
2019-04-29T12:58:50.664Z,48.00
2019-04-29T13:01:50.226Z,47.79
2019-04-29T13:04:21.643Z,46.48
2019-04-29T13:07:03.106Z,46.48
2019-04-29T13:12:22.644Z,43.72
2019-04-29T13:15:03.110Z,42.90
2019-04-29T13:17:47.176Z,40.89
2019-04-29T13:20:17.770Z,40.14
2019-04-29T13:22:48.347Z,41.30
2019-04-29T13:25:19.746Z,41.56
2019-04-29T13:27:51.419Z,41.20
2019-04-29T13:30:22.233Z,41.68
2019-04-29T13:32:52.962Z,42.06
2019-04-29T13:35:23.739Z,42.06
2019-04-29T13:37:55.916Z,41.03
2019-04-29T13:40:26.544Z,42.05
2019-04-29T13:42:57.143Z,42.09
2019-04-29T13:45:41.663Z,42.21
2019-04-29T13:48:16.599Z,42.68
2019-04-29T13:50:48.832Z,42.89
2019-04-29T13:53:19.560Z,42.25
2019-04-29T13:56:10.005Z,42.52
2019-04-29T13:58:27.104Z,42.86
2019-04-29T14:01:22.092Z,43.14
2019-04-29T14:03:49.896Z,42.63
2019-04-29T14:06:20.491Z,41.32
2019-04-29T14:08:54.030Z,40.87
2019-04-29T14:11:25.969Z,41.27
2019-04-29T14:13:55.707Z,40.36
2019-04-29T14:16:26.291Z,40.72
2019-04-29T14:18:56.918Z,40.79
2019-04-29T14:21:30.130Z,40.31
2019-04-29T14:24:00.268Z,40.77
2019-04-29T14:26:32.286Z,39.50
2019-04-29T14:29:03.939Z,40.81
2019-04-29T14:31:35.650Z,39.40
2019-04-29T14:34:10.839Z,38.83
2019-04-29T14:36:41.612Z,38.90
2019-04-29T14:39:13.036Z,39.02
2019-04-29T14:41:46.455Z,40.14
2019-04-29T14:44:31.471Z,39.79
2019-04-29T14:47:17.621Z,39.44
2019-04-29T14:49:55.194Z,39.89
2019-04-29T14:52:25.835Z,39.51
2019-04-29T14:54:56.560Z,39.46
2019-04-29T14:57:27.997Z,39.92
2019-04-29T14:59:58.901Z,39.65
2019-04-29T15:02:29.942Z,40.41
2019-04-29T15:05:00.806Z,40.41
2019-04-29T15:07:33.213Z,39.92
2019-04-29T15:10:08.774Z,40.36
2019-04-29T15:12:51.705Z,40.93
2019-04-29T15:15:34.126Z,39.69
2019-04-29T15:18:15.889Z,40.55
2019-04-29T15:20:42.150Z,40.15
2019-04-29T15:23:12.740Z,39.54
2019-04-29T15:25:43.447Z,40.47
2019-04-29T15:28:14.212Z,40.30
2019-04-29T15:30:45.333Z,40.61
2019-04-29T15:33:16.533Z,40.61
2019-04-29T15:35:48.811Z,39.87
2019-04-29T15:38:19.475Z,39.54
2019-04-29T15:40:50.121Z,39.72
2019-04-29T15:43:24.475Z,39.67
2019-04-29T15:45:53.518Z,39.58
2019-04-29T15:48:24.315Z,39.58
2019-04-29T15:50:55.523Z,39.53
2019-04-29T15:53:26.945Z,40.05
2019-04-29T15:56:06.642Z,40.57
2019-04-29T15:58:31.330Z,41.06
2019-04-29T16:01:13.046Z,41.06
2019-04-29T16:03:37.611Z,40.45
2019-04-29T16:06:21.234Z,41.10
2019-04-29T16:08:47.527Z,41.30
2019-04-29T16:11:36.286Z,41.30
2019-04-29T16:14:10.028Z,40.94
2019-04-29T16:16:42.225Z,41.31
2019-04-29T16:19:12.912Z,41.57
2019-04-29T16:21:43.953Z,42.11
2019-04-29T16:24:26.445Z,41.16
2019-04-29T16:26:53.299Z,40.82
2019-04-29T16:29:20.253Z,41.45
2019-04-29T16:31:54.920Z,41.55
2019-04-29T16:34:23.822Z,42.25
2019-04-29T16:36:54.436Z,41.79
2019-04-29T16:39:25.285Z,41.68
2019-04-29T16:42:12.737Z,41.58
2019-04-29T16:44:45.014Z,42.12
2019-04-29T16:47:17.325Z,41.79
2019-04-29T16:49:48.894Z,41.77
2019-04-29T16:52:19.564Z,39.58
2019-04-29T16:54:50.709Z,39.89
2019-04-29T16:57:21.619Z,39.02
2019-04-29T16:59:52.185Z,38.87
2019-04-29T17:02:24.111Z,38.51
2019-04-29T17:04:54.743Z,38.80
2019-04-29T17:07:25.304Z,39.17
2019-04-29T17:10:00.724Z,39.19
2019-04-29T17:12:36.221Z,40.05
2019-04-29T17:15:23.042Z,39.72
2019-04-29T17:17:39.504Z,39.88
2019-04-29T17:20:10.413Z,39.95
2019-04-29T17:22:43.365Z,40.09
2019-04-29T17:25:16.641Z,40.43
2019-04-29T17:28:11.425Z,40.48
2019-04-29T17:30:46.381Z,40.36
2019-04-29T17:33:28.025Z,40.82
2019-04-29T17:35:54.449Z,40.93
2019-04-29T17:38:25.034Z,42.20
2019-04-29T17:40:56.405Z,43.14
2019-04-29T17:43:38.277Z,43.95
2019-04-29T17:46:14.352Z,44.25
2019-04-29T17:48:53.216Z,44.80
2019-04-29T17:51:22.615Z,43.98
2019-04-29T17:53:54.971Z,44.31
2019-04-29T17:56:45.132Z,44.38
2019-04-29T17:59:29.436Z,43.83
2019-04-29T18:02:20.755Z,43.40
2019-04-29T18:04:59.480Z,42.64
2019-04-29T18:07:40.451Z,42.72
2019-04-29T18:10:24.494Z,42.98
2019-04-29T18:12:51.253Z,43.12
2019-04-29T18:15:27.021Z,43.36
2019-04-29T18:18:00.306Z,43.48
2019-04-29T18:20:33.462Z,43.65
2019-04-29T18:23:05.880Z,43.90
2019-04-29T18:25:56.154Z,44.09
2019-04-29T18:28:27.013Z,44.69
2019-04-29T18:30:57.922Z,44.88
2019-04-29T18:33:30.352Z,45.19
2019-04-29T18:36:04.298Z,45.57
2019-04-29T18:38:35.069Z,45.89
2019-04-29T18:41:05.707Z,46.04
2019-04-29T18:43:36.274Z,46.25
2019-04-29T18:46:12.658Z,46.63
2019-04-29T18:48:39.275Z,46.81
2019-04-29T18:51:09.872Z,47.05
2019-04-29T18:53:40.547Z,47.22
2019-04-29T18:56:12.181Z,47.56
2019-04-29T18:58:46.882Z,47.65
2019-04-29T19:01:16.681Z,47.74
2019-04-29T19:03:52.742Z,48.10
2019-04-29T19:06:23.379Z,48.35
2019-04-29T19:08:56.589Z,48.59
2019-04-29T19:11:32.465Z,48.75
2019-04-29T19:13:59.716Z,48.83
2019-04-29T19:16:30.440Z,49.02
2019-04-29T19:19:01.830Z,48.36
2019-04-29T19:21:33.486Z,48.56
2019-04-29T19:24:04.860Z,48.48
2019-04-29T19:26:36.393Z,48.77
2019-04-29T19:29:09.402Z,48.72
2019-04-29T19:31:46.810Z,48.61
2019-04-29T19:34:14.616Z,48.43
2019-04-29T19:36:45.126Z,48.43
2019-04-29T19:39:17.056Z,48.05
2019-04-29T19:41:51.555Z,47.62
2019-04-29T19:44:26.561Z,47.26
2019-04-29T19:46:58.960Z,47.02
2019-04-29T19:49:29.176Z,46.80
2019-04-29T19:52:00.130Z,46.25
2019-04-29T19:54:31.331Z,45.97
2019-04-29T19:57:07.479Z,46.01
2019-04-29T19:59:38.158Z,45.94
2019-04-29T20:02:11.407Z,46.28
2019-04-29T20:04:53.717Z,45.91
2019-04-29T20:07:27.243Z,45.73
2019-04-29T20:10:03.682Z,45.78
2019-04-29T20:12:31.930Z,45.92
2019-04-29T20:15:07.705Z,46.01
2019-04-29T20:17:59.840Z,46.24
2019-04-29T20:20:38.610Z,46.26
2019-04-29T20:23:10.120Z,46.13
2019-04-29T20:25:41.364Z,45.66
2019-04-29T20:28:17.587Z,45.54
2019-04-29T20:30:45.839Z,45.47
2019-04-29T20:33:20.032Z,44.13
2019-04-29T20:35:50.956Z,44.16
2019-04-29T20:38:21.637Z,43.68
2019-04-29T20:40:52.714Z,43.63
2019-04-29T20:43:25.963Z,44.30
2019-04-29T20:45:58.153Z,43.65
2019-04-29T20:48:31.364Z,43.16
2019-04-29T20:51:10.813Z,44.60
2019-04-29T20:53:41.276Z,45.57
2019-04-29T20:56:16.981Z,45.46
2019-04-29T20:58:46.721Z,43.48
2019-04-29T21:01:18.589Z,43.54
2019-04-29T21:03:53.600Z,44.64
2019-04-29T21:06:21.553Z,43.59
2019-04-29T21:08:52.291Z,43.56
2019-04-29T21:11:25.787Z,43.88
2019-04-29T21:14:15.784Z,44.07
2019-04-29T21:16:51.117Z,43.89
2019-04-29T21:19:21.698Z,46.40
2019-04-29T21:21:52.274Z,43.64
2019-04-29T21:24:22.831Z,43.72
2019-04-29T21:26:55.035Z,44.08
2019-04-29T21:29:25.696Z,45.17
2019-04-29T21:32:01.435Z,44.21
2019-04-29T21:34:34.602Z,44.86
2019-04-29T21:37:08.552Z,44.77
2019-04-29T21:39:38.063Z,45.02
2019-04-29T21:42:10.283Z,44.26
2019-04-29T21:44:40.864Z,44.73
2019-04-29T21:47:11.698Z,45.37
2019-04-29T21:49:45.642Z,44.47
2019-04-29T21:52:19.514Z,44.19
2019-04-29T21:54:49.179Z,44.36
2019-04-29T21:57:23.722Z,45.19
2019-04-29T21:59:53.442Z,44.43
2019-04-29T22:02:26.096Z,43.82
2019-04-29T22:04:56.323Z,44.22
2019-04-29T22:07:26.911Z,44.39
2019-04-29T22:09:57.476Z,44.72
2019-04-29T22:12:28.046Z,44.61
2019-04-29T22:14:59.495Z,44.54
2019-04-29T22:17:32.810Z,45.26
2019-04-29T22:20:07.431Z,44.37
2019-04-29T22:22:37.715Z,44.35
2019-04-29T22:25:10.140Z,44.33
2019-04-29T22:27:41.228Z,44.83
2019-04-29T22:30:16.857Z,44.76
2019-04-29T22:32:47.158Z,45.54
2019-04-29T22:35:18.024Z,44.46
2019-04-29T22:37:48.606Z,44.60
2019-04-29T22:40:19.156Z,45.37
2019-04-29T22:43:04.834Z,44.62
2019-04-29T22:45:33.855Z,45.20
2019-04-29T22:48:14.325Z,44.54
2019-04-29T22:50:38.237Z,45.03
2019-04-29T22:53:08.820Z,45.75
2019-04-29T22:55:39.684Z,45.60
2019-04-29T23:00:40.442Z,45.39
2019-04-29T23:03:11.366Z,46.07
2019-04-29T23:05:41.935Z,46.84
2019-04-29T23:08:12.609Z,45.85
2019-04-29T23:10:45.635Z,46.48
2019-04-29T23:13:16.510Z,46.21
2019-04-29T23:15:47.221Z,46.49
2019-04-29T23:18:24.619Z,46.03
2019-04-29T23:21:05.101Z,46.00
2019-04-29T23:23:45.276Z,47.17
2019-04-29T23:26:16.943Z,47.60
2019-04-29T23:28:47.812Z,46.42
2019-04-29T23:31:18.491Z,47.78
2019-04-29T23:33:53.178Z,48.45
2019-04-29T23:36:21.357Z,48.58
2019-04-29T23:38:51.932Z,47.92
2019-04-29T23:41:27.683Z,48.33
2019-04-29T23:43:59.877Z,47.22
2019-04-29T23:46:29.742Z,48.60
2019-04-29T23:49:03.154Z,48.29
2019-04-29T23:51:34.447Z,47.81
2019-04-29T23:54:07.812Z,47.98
2019-04-29T23:56:48.120Z,48.96
2019-04-29T23:59:18.838Z,48.97
